Time;durP1;ratioP1;P1;durP2;ratioP2;P2;SDS_P1;SDS_P2;PMS_P1;PMS_P2;Temp;Humidity;BMP_temperature;BMP_pressure;BME280_temperature;BME280_humidity;BME280_pressure;Samples;Min_cycle;Max_cycle;Signal;HPM_P1;HPM_P2
2024/04/13 00:00:02;;;;;;;3.70;3.30;;;14.60;99.90;;;;;;5275986;27;20585;-63
2024/04/13 00:02:27;;;;;;;5.10;4.10;;;14.60;99.90;;;;;;5275725;27;20791;-63
2024/04/13 00:04:53;;;;;;;6.00;3.70;;;14.60;99.90;;;;;;5275974;27;20616;-63
2024/04/13 00:07:18;;;;;;;6.00;3.60;;;14.60;99.90;;;;;;5275951;27;20279;-63
2024/04/13 00:09:44;;;;;;;5.03;4.53;;;14.60;99.90;;;;;;5275628;27;20233;-63
2024/04/13 00:12:10;;;;;;;7.43;4.53;;;14.50;99.90;;;;;;5275750;27;20224;-63
2024/04/13 00:14:35;;;;;;;4.97;4.43;;;14.50;99.90;;;;;;5275471;27;20280;-63
2024/04/13 00:17:02;;;;;;;5.50;5.00;;;14.60;99.90;;;;;;5276062;27;20347;-63
2024/04/13 00:19:28;;;;;;;6.00;3.10;;;14.60;99.90;;;;;;5275473;27;20273;-63
2024/04/13 00:21:53;;;;;;;5.37;4.87;;;14.60;99.90;;;;;;5275953;27;20452;-63
2024/04/13 00:24:19;;;;;;;4.70;4.13;;;14.60;99.90;;;;;;5275684;27;20283;-64
2024/04/13 00:26:45;;;;;;;4.30;3.97;;;14.60;99.90;;;;;;5275549;27;20264;-63
2024/04/13 00:29:10;;;;;;;5.50;5.00;;;14.60;99.90;;;;;;5275800;27;20576;-63
2024/04/13 00:31:36;;;;;;;6.03;4.33;;;14.60;99.90;;;;;;5275390;27;20406;-63
2024/04/13 00:34:02;;;;;;;6.67;5.03;;;14.70;99.90;;;;;;5275549;27;20228;-63
2024/04/13 00:36:28;;;;;;;7.57;5.40;;;14.60;99.90;;;;;;5275148;27;20308;-63
2024/04/13 00:38:53;;;;;;;6.30;5.07;;;14.60;99.90;;;;;;5275331;27;20449;-63
2024/04/13 00:41:20;;;;;;;5.03;4.53;;;14.60;99.90;;;;;;5275334;27;20225;-63
2024/04/13 00:43:46;;;;;;;4.40;4.00;;;14.50;99.90;;;;;;5275401;27;20332;-63
2024/04/13 00:46:23;;;;;;;5.83;4.63;;;14.60;99.90;;;;;;5275261;27;21008;-63
2024/04/13 00:48:50;;;;;;;9.10;5.90;;;14.60;99.90;;;;;;5275584;27;20241;-63
2024/04/13 00:51:17;;;;;;;5.97;5.40;;;14.60;99.90;;;;;;5275243;27;20581;-63
2024/04/13 00:53:43;;;;;;;6.23;4.67;;;14.70;99.90;;;;;;5274741;27;20915;-63
2024/04/13 00:56:11;;;;;;;5.03;4.13;;;14.70;99.90;;;;;;5275173;27;20479;-63
2024/04/13 00:58:38;;;;;;;7.13;5.23;;;14.70;99.90;;;;;;5274654;27;20463;-62
2024/04/13 01:01:05;;;;;;;4.97;4.30;;;14.80;99.90;;;;;;5275242;27;20584;-63
2024/04/13 01:03:31;;;;;;;5.10;4.60;;;14.80;99.90;;;;;;5274831;27;20459;-63
2024/04/13 01:05:57;;;;;;;6.10;5.30;;;14.90;99.90;;;;;;5274825;27;20513;-63
2024/04/13 01:08:23;;;;;;;4.30;3.83;;;14.90;99.90;;;;;;5274840;27;20332;-63
2024/04/13 01:10:49;;;;;;;5.23;4.37;;;14.90;99.90;;;;;;5273336;27;20860;-63
2024/04/13 01:13:18;;;;;;;5.20;4.40;;;15.00;99.90;;;;;;5274982;27;20269;-63
2024/04/13 01:15:44;;;;;;;5.47;4.27;;;14.90;99.90;;;;;;5274787;27;20571;-63
2024/04/13 01:18:10;;;;;;;8.77;4.80;;;14.90;99.90;;;;;;5274992;27;20574;-63
2024/04/13 01:20:43;;;;;;;6.23;4.10;;;15.00;99.90;;;;;;5274613;27;20301;-63
2024/04/13 01:23:11;;;;;;;7.83;5.80;;;15.00;99.90;;;;;;5274982;27;20480;-63
2024/04/13 01:25:40;;;;;;;4.80;4.20;;;15.00;99.90;;;;;;5274566;27;20526;-63
2024/04/13 01:28:06;;;;;;;8.97;5.60;;;15.00;99.90;;;;;;5274856;27;20465;-63
2024/04/13 01:30:34;;;;;;;4.83;3.97;;;15.00;99.90;;;;;;5274999;27;20461;-63
2024/04/13 01:33:00;;;;;;;7.27;5.30;;;15.00;99.90;;;;;;5274806;27;20465;-63
2024/04/13 01:35:25;;;;;;;6.13;4.90;;;15.00;99.90;;;;;;5274437;27;20525;-63
2024/04/13 01:37:51;;;;;;;5.37;4.87;;;15.00;99.90;;;;;;5274537;27;20224;-63
2024/04/13 01:40:17;;;;;;;7.63;5.10;;;15.00;99.90;;;;;;5272900;27;20247;-63
2024/04/13 01:42:44;;;;;;;5.17;4.67;;;15.00;99.90;;;;;;5274692;27;20385;-63
2024/04/13 01:45:09;;;;;;;6.53;4.77;;;14.90;99.90;;;;;;5275188;27;20279;-63
2024/04/13 01:47:35;;;;;;;8.73;5.30;;;14.90;99.90;;;;;;5269802;27;20465;-63
2024/04/13 01:50:02;;;;;;;5.50;5.00;;;14.90;99.90;;;;;;5274693;27;20499;-63
2024/04/13 01:52:27;;;;;;;6.00;5.20;;;14.90;99.90;;;;;;5274450;27;20456;-63
2024/04/13 01:54:53;;;;;;;6.67;5.97;;;14.80;99.90;;;;;;5274160;27;20936;-61
2024/04/13 01:57:19;;;;;;;5.23;4.63;;;14.80;99.90;;;;;;5274493;27;20258;-64
2024/04/13 01:59:45;;;;;;;5.90;5.30;;;14.80;99.90;;;;;;5273815;27;20479;-62
2024/04/13 02:02:11;;;;;;;6.73;5.07;;;14.70;99.90;;;;;;5274230;27;20633;-64
2024/04/13 02:04:37;;;;;;;5.90;4.90;;;14.70;99.90;;;;;;5273940;27;20796;-62
2024/04/13 02:07:03;;;;;;;8.10;4.93;;;14.60;99.90;;;;;;5273969;27;21044;-63
2024/04/13 02:09:29;;;;;;;7.93;6.33;;;14.60;99.90;;;;;;5274227;27;20763;-64
2024/04/13 02:11:54;;;;;;;7.40;6.47;;;14.50;99.90;;;;;;5274101;27;20504;-62
2024/04/13 02:14:20;;;;;;;7.30;6.10;;;14.50;99.90;;;;;;5273889;27;20227;-62
2024/04/13 02:16:46;;;;;;;7.73;7.03;;;14.40;99.90;;;;;;5273651;27;20786;-62
2024/04/13 02:19:12;;;;;;;8.73;6.47;;;14.30;99.90;;;;;;5273897;27;20268;-63
2024/04/13 02:21:38;;;;;;;7.23;6.53;;;14.20;99.90;;;;;;5273377;27;20224;-62
2024/04/13 02:24:04;;;;;;;7.03;6.30;;;14.20;99.90;;;;;;5274226;27;20277;-62
2024/04/13 02:26:31;;;;;;;11.53;7.90;;;14.20;99.90;;;;;;5273841;27;20497;-62
2024/04/13 02:28:58;;;;;;;7.03;6.00;;;14.10;99.90;;;;;;5273862;27;20512;-62
2024/04/13 02:31:24;;;;;;;11.27;7.23;;;14.10;99.90;;;;;;5273840;27;20834;-62
2024/04/13 02:33:49;;;;;;;8.43;6.80;;;14.00;99.90;;;;;;5273521;27;20508;-62
2024/04/13 02:36:15;;;;;;;9.40;6.60;;;14.00;99.90;;;;;;5273604;27;20460;-62
2024/04/13 02:38:42;;;;;;;7.50;6.80;;;13.90;99.90;;;;;;5273794;27;20739;-62
2024/04/13 02:41:08;;;;;;;7.83;6.93;;;13.90;99.90;;;;;;5273618;27;20528;-63
2024/04/13 02:43:35;;;;;;;14.50;10.57;;;13.90;99.90;;;;;;5273491;27;20468;-62
2024/04/13 02:46:09;;;;;;;10.03;8.53;;;13.80;99.90;;;;;;5273718;27;21082;-63
2024/04/13 02:48:39;;;;;;;11.40;8.60;;;13.70;99.90;;;;;;5273237;27;20511;-62
2024/04/13 02:51:08;;;;;;;10.23;7.97;;;13.70;99.90;;;;;;5273675;27;20463;-63
2024/04/13 02:53:34;;;;;;;11.53;9.03;;;13.70;99.90;;;;;;5273519;27;20463;-62
2024/04/13 02:56:03;;;;;;;8.03;6.80;;;13.60;99.90;;;;;;5273568;27;21002;-62
2024/04/13 02:58:29;;;;;;;8.13;7.30;;;13.60;99.90;;;;;;5273558;27;20528;-62
2024/04/13 03:00:58;;;;;;;7.97;7.17;;;13.60;99.90;;;;;;5273188;27;20580;-62
2024/04/13 03:03:24;;;;;;;7.97;7.17;;;13.50;99.90;;;;;;5273622;27;20279;-62
2024/04/13 03:06:01;;;;;;;8.23;6.83;;;13.60;99.90;;;;;;5272916;27;20480;-63
2024/04/13 03:08:27;;;;;;;10.87;7.80;;;13.60;99.90;;;;;;5273283;27;20463;-63
2024/04/13 03:10:57;;;;;;;11.37;7.87;;;13.50;99.90;;;;;;5272857;27;20535;-63
2024/04/13 03:13:23;;;;;;;11.97;8.30;;;13.50;99.90;;;;;;5273600;27;20237;-62
2024/04/13 03:15:58;;;;;;;8.57;7.77;;;13.40;99.90;;;;;;5273053;27;20990;-62
2024/04/13 03:18:25;;;;;;;8.57;7.63;;;13.40;99.90;;;;;;5273302;27;20448;-62
2024/04/13 03:20:51;;;;;;;8.50;7.60;;;13.40;99.90;;;;;;5272933;27;20535;-62
2024/04/13 03:23:17;;;;;;;9.37;7.53;;;13.50;99.90;;;;;;5273298;27;20922;-64
2024/04/13 03:25:43;;;;;;;8.07;6.83;;;13.50;99.90;;;;;;5272988;27;20233;-64
2024/04/13 03:28:09;;;;;;;9.63;7.10;;;13.50;99.90;;;;;;5273412;27;20540;-62
2024/04/13 03:30:35;;;;;;;11.47;7.23;;;13.50;99.90;;;;;;5272959;27;20229;-61
2024/04/13 03:33:03;;;;;;;8.70;7.30;;;13.50;99.90;;;;;;5272058;27;20415;-62
2024/04/13 03:35:28;;;;;;;8.77;6.63;;;13.50;99.90;;;;;;5273393;27;20468;-62
2024/04/13 03:37:57;;;;;;;9.50;6.87;;;13.40;99.90;;;;;;5273382;27;21270;-62
2024/04/13 03:40:23;;;;;;;7.30;6.60;;;13.40;99.90;;;;;;5273157;27;20343;-62
2024/04/13 03:42:48;;;;;;;7.67;6.87;;;13.30;99.90;;;;;;5273476;27;20989;-62
2024/04/13 03:45:16;;;;;;;8.50;7.47;;;13.40;99.90;;;;;;5273174;27;20279;-62
2024/04/13 03:47:43;;;;;;;7.53;6.67;;;13.40;99.90;;;;;;5273267;27;20236;-62
2024/04/13 03:50:10;;;;;;;8.43;6.53;;;13.30;99.90;;;;;;5273666;27;21018;-63
2024/04/13 03:52:35;;;;;;;7.60;6.70;;;13.30;99.90;;;;;;5273554;27;20651;-63
2024/04/13 03:55:04;;;;;;;7.67;6.50;;;13.30;99.90;;;;;;5272878;27;20455;-62
2024/04/13 03:57:31;;;;;;;9.90;7.97;;;13.30;99.90;;;;;;5272701;27;20267;-63
2024/04/13 03:59:58;;;;;;;8.83;7.60;;;13.30;99.90;;;;;;5272245;27;20520;-63
2024/04/13 04:02:23;;;;;;;8.43;6.97;;;13.30;99.90;;;;;;5272547;27;20460;-62
2024/04/13 04:04:49;;;;;;;7.13;6.27;;;13.30;99.90;;;;;;5272308;27;20548;-63
2024/04/13 04:07:14;;;;;;;9.53;7.80;;;13.20;99.90;;;;;;5272391;27;20248;-63
2024/04/13 04:09:40;;;;;;;8.87;7.20;;;13.10;99.90;;;;;;5272438;27;20271;-62
2024/04/13 04:12:06;;;;;;;7.93;6.97;;;13.20;99.90;;;;;;5272437;27;20233;-63
2024/04/13 04:14:31;;;;;;;11.63;9.77;;;13.20;99.90;;;;;;5272299;27;20857;-63
2024/04/13 04:16:57;;;;;;;7.63;6.33;;;13.20;99.90;;;;;;5271925;27;20240;-63
2024/04/13 04:19:22;;;;;;;9.10;7.43;;;13.20;99.90;;;;;;5271988;27;20240;-62
2024/04/13 04:21:49;;;;;;;7.63;6.60;;;13.20;99.90;;;;;;5272314;27;20245;-63
2024/04/13 04:24:15;;;;;;;8.13;7.33;;;13.20;99.90;;;;;;5272334;27;20229;-62
2024/04/13 04:26:40;;;;;;;8.03;7.20;;;13.30;99.90;;;;;;5271868;27;20599;-63
2024/04/13 04:29:06;;;;;;;13.93;7.70;;;13.20;99.90;;;;;;5271926;27;20596;-63
2024/04/13 04:31:32;;;;;;;9.67;7.53;;;13.20;99.90;;;;;;5271960;27;20258;-63
2024/04/13 04:33:57;;;;;;;8.03;6.73;;;13.30;99.90;;;;;;5271883;27;20467;-63
2024/04/13 04:36:23;;;;;;;12.20;7.53;;;13.30;99.90;;;;;;5272081;27;20700;-62
2024/04/13 04:38:51;;;;;;;9.50;6.90;;;13.40;99.90;;;;;;5271941;27;20321;-62
2024/04/13 04:41:17;;;;;;;9.53;8.53;;;13.50;99.90;;;;;;5272509;27;20342;-62
2024/04/13 04:43:43;;;;;;;7.23;6.43;;;13.60;99.90;;;;;;5272842;27;20479;-62
2024/04/13 04:46:09;;;;;;;9.07;7.23;;;13.60;99.90;;;;;;5275196;27;20678;-62
2024/04/13 04:48:35;;;;;;;8.60;7.53;;;13.70;99.90;;;;;;5275046;27;20263;-62
2024/04/13 04:51:02;;;;;;;8.93;7.47;;;13.80;99.90;;;;;;5275467;27;20519;-62
2024/04/13 04:53:28;;;;;;;8.13;7.33;;;13.90;99.90;;;;;;5275413;27;20613;-62
2024/04/13 04:55:54;;;;;;;8.30;7.00;;;13.90;99.90;;;;;;5275262;27;20468;-62
2024/04/13 04:58:20;;;;;;;8.70;7.07;;;14.00;99.90;;;;;;5275727;27;20559;-63
2024/04/13 05:00:46;;;;;;;7.97;6.17;;;14.00;99.90;;;;;;5274795;27;20459;-63
2024/04/13 05:03:11;;;;;;;8.10;7.40;;;14.00;99.90;;;;;;5275338;27;20692;-63
2024/04/13 05:05:37;;;;;;;11.07;7.10;;;14.00;99.90;;;;;;5275151;27;20289;-63
2024/04/13 05:08:03;;;;;;;8.30;6.60;;;13.90;99.90;;;;;;5275335;27;20279;-63
2024/04/13 05:10:28;;;;;;;8.53;7.03;;;14.00;99.90;;;;;;5275252;27;20225;-63
2024/04/13 05:12:55;;;;;;;8.20;6.93;;;14.00;99.90;;;;;;5275102;27;20225;-63
2024/04/13 05:15:21;;;;;;;6.27;5.70;;;14.10;99.90;;;;;;5275367;27;20572;-63
2024/04/13 05:17:46;;;;;;;9.50;7.83;;;14.30;99.90;;;;;;5274930;27;20471;-63
2024/04/13 05:20:12;;;;;;;5.63;5.10;;;14.40;99.90;;;;;;5275195;27;20274;-63
2024/04/13 05:22:38;;;;;;;8.03;6.97;;;14.50;99.90;;;;;;5275297;27;20719;-62
2024/04/13 05:25:05;;;;;;;6.50;5.87;;;14.40;99.90;;;;;;5274890;27;20551;-63
2024/04/13 05:27:31;;;;;;;8.60;7.07;;;14.50;99.90;;;;;;5275121;27;20513;-63
2024/04/13 05:30:02;;;;;;;9.10;6.80;;;14.40;99.90;;;;;;5274874;27;20452;-63
2024/04/13 05:32:28;;;;;;;8.90;6.97;;;14.40;99.90;;;;;;5275051;27;20312;-63
2024/04/13 05:34:54;;;;;;;6.30;5.73;;;14.50;99.90;;;;;;5274837;27;20525;-63
2024/04/13 05:37:19;;;;;;;9.43;5.93;;;14.50;99.90;;;;;;5275157;27;20464;-63
2024/04/13 05:39:45;;;;;;;6.80;6.10;;;14.50;99.90;;;;;;5274593;27;20743;-64
2024/04/13 05:42:11;;;;;;;7.50;6.70;;;14.40;99.90;;;;;;5274841;27;20339;-62
2024/04/13 05:44:37;;;;;;;7.20;6.50;;;14.50;99.90;;;;;;5274736;27;20461;-62
2024/04/13 05:47:02;;;;;;;5.90;5.30;;;14.60;99.90;;;;;;5274217;27;20293;-64
2024/04/13 05:49:28;;;;;;;6.53;5.90;;;14.70;99.90;;;;;;5274751;27;20339;-65
2024/04/13 05:51:53;;;;;;;6.80;5.87;;;14.90;99.90;;;;;;5274463;27;21062;-65
2024/04/13 05:54:19;;;;;;;8.70;6.77;;;15.30;99.90;;;;;;5274791;27;20322;-62
2024/04/13 05:56:45;;;;;;;6.30;5.63;;;15.60;99.90;;;;;;5273214;27;20229;-62
2024/04/13 05:59:11;;;;;;;6.87;5.37;;;15.70;99.90;;;;;;5274330;27;20367;-62
2024/04/13 06:01:37;;;;;;;5.63;5.10;;;16.10;99.90;;;;;;5274175;27;20267;-63
2024/04/13 06:04:03;;;;;;;5.73;4.97;;;16.00;99.90;;;;;;5274061;27;20561;-63
2024/04/13 06:06:29;;;;;;;6.70;6.00;;;16.50;99.90;;;;;;5274064;27;20474;-63
2024/04/13 06:08:54;;;;;;;6.70;5.57;;;16.80;99.90;;;;;;5274252;27;20228;-63
2024/04/13 06:11:20;;;;;;;6.50;5.53;;;16.70;99.90;;;;;;5274310;27;20623;-63
2024/04/13 06:13:46;;;;;;;8.40;5.33;;;16.70;99.90;;;;;;5255977;27;20237;-63
2024/04/13 06:16:11;;;;;;;5.90;5.03;;;16.80;99.90;;;;;;5268044;27;20467;-63
2024/04/13 06:18:37;;;;;;;5.50;4.93;;;17.20;99.90;;;;;;5273369;27;20234;-64
2024/04/13 06:21:02;;;;;;;6.10;5.33;;;17.70;99.90;;;;;;5273996;27;20320;-64
2024/04/13 06:23:28;;;;;;;5.43;4.90;;;18.10;99.90;;;;;;5273984;27;20272;-64
2024/04/13 06:25:54;;;;;;;5.60;4.43;;;18.00;99.90;;;;;;5273573;27;20345;-64
2024/04/13 06:28:23;;;;;;;5.53;4.97;;;17.80;99.90;;;;;;5273876;27;20575;-64
2024/04/13 06:30:49;;;;;;;4.80;4.13;;;18.10;99.90;;;;;;5269887;27;20280;-62
2024/04/13 06:33:16;;;;;;;5.03;4.53;;;18.90;99.90;;;;;;5267132;27;20587;-65
2024/04/13 06:35:42;;;;;;;7.60;5.20;;;19.40;99.90;;;;;;5258575;27;20524;-63
2024/04/13 06:38:08;;;;;;;5.77;4.33;;;19.00;99.90;;;;;;5265287;27;20941;-63
2024/04/13 06:40:35;;;;;;;4.57;4.10;;;18.80;99.90;;;;;;5273039;27;20554;-63
2024/04/13 06:43:01;;;;;;;4.73;4.33;;;19.90;99.90;;;;;;5273763;27;20242;-64
2024/04/13 06:45:27;;;;;;;5.20;4.47;;;19.90;99.90;;;;;;5273703;27;20515;-64
2024/04/13 06:47:52;;;;;;;4.40;4.00;;;20.50;99.90;;;;;;5273401;27;20509;-64
2024/04/13 06:50:18;;;;;;;4.47;4.07;;;20.50;99.90;;;;;;5273283;27;20464;-64
2024/04/13 06:52:43;;;;;;;5.23;4.73;;;20.70;99.90;;;;;;5271340;27;20279;-63
2024/04/13 06:55:09;;;;;;;7.63;5.10;;;21.30;99.90;;;;;;5271731;27;20229;-64
2024/04/13 06:57:35;;;;;;;7.93;4.90;;;21.30;99.90;;;;;;5272887;27;20275;-64
2024/04/13 07:00:01;;;;;;;9.90;5.07;;;21.60;99.90;;;;;;5272847;27;20283;-68
2024/04/13 07:02:26;;;;;;;4.53;4.13;;;22.00;99.90;;;;;;5273533;27;20236;-63
2024/04/13 07:04:52;;;;;;;6.37;4.27;;;21.10;99.90;;;;;;5273160;27;20278;-63
2024/04/13 07:07:18;;;;;;;7.30;5.33;;;21.10;99.90;;;;;;5269741;27;20258;-67
2024/04/13 07:09:43;;;;;;;7.07;4.13;;;21.10;99.90;;;;;;5272490;27;20456;-63
2024/04/13 07:12:09;;;;;;;5.63;4.80;;;21.20;99.90;;;;;;5272946;27;20335;-63
2024/04/13 07:14:35;;;;;;;7.20;5.70;;;21.50;99.90;;;;;;5273388;27;20231;-63
2024/04/13 07:17:01;;;;;;;7.10;4.57;;;21.80;99.90;;;;;;5273409;27;20248;-63
2024/04/13 07:19:27;;;;;;;6.93;6.23;;;21.90;99.90;;;;;;5273562;27;20480;-63
2024/04/13 07:21:53;;;;;;;6.33;4.83;;;22.20;99.90;;;;;;5273234;27;20229;-64
2024/04/13 07:24:18;;;;;;;6.17;4.57;;;21.90;99.90;;;;;;5269651;27;20515;-64
2024/04/13 07:26:44;;;;;;;4.93;4.20;;;22.00;99.90;;;;;;5272475;27;20339;-64
2024/04/13 07:29:10;;;;;;;5.30;4.00;;;21.60;99.90;;;;;;5272336;27;20536;-63
2024/04/13 07:31:35;;;;;;;5.53;4.70;;;22.60;99.90;;;;;;5273237;27;20279;-63
2024/04/13 07:34:01;;;;;;;4.33;3.83;;;22.60;99.90;;;;;;5272171;27;20471;-64
2024/04/13 07:36:27;;;;;;;4.90;4.50;;;22.80;99.90;;;;;;5272810;27;20228;-63
2024/04/13 07:38:52;;;;;;;7.10;4.93;;;22.60;99.90;;;;;;5273596;27;20546;-62
2024/04/13 07:41:18;;;;;;;4.83;4.43;;;22.40;99.90;;;;;;5272959;27;20327;-64
2024/04/13 07:43:43;;;;;;;6.83;6.13;;;23.40;99.90;;;;;;5273204;27;20603;-64
2024/04/13 07:46:09;;;;;;;7.10;4.17;;;23.50;99.90;;;;;;5272291;27;20684;-63
2024/04/13 07:48:35;;;;;;;6.27;4.60;;;22.90;99.90;;;;;;5271817;27;20296;-64
2024/04/13 07:51:00;;;;;;;5.40;4.70;;;22.50;99.90;;;;;;5271805;27;20228;-64
2024/04/13 07:53:30;;;;;;;4.60;4.20;;;21.40;99.90;;;;;;5271959;27;20232;-64
2024/04/13 07:55:58;;;;;;;5.07;4.57;;;21.10;99.90;;;;;;5271456;27;20233;-63
2024/04/13 07:58:24;;;;;;;7.80;4.90;;;21.40;99.90;;;;;;5272528;27;20986;-63
2024/04/13 08:00:50;;;;;;;5.63;5.13;;;21.10;99.90;;;;;;5272303;27;20518;-64
2024/04/13 08:03:16;;;;;;;5.87;5.07;;;21.00;99.90;;;;;;5272460;27;20276;-63
2024/04/13 08:05:42;;;;;;;5.70;5.23;;;20.90;99.90;;;;;;5272065;27;20234;-63
2024/04/13 08:08:07;;;;;;;6.00;5.50;;;20.90;99.90;;;;;;5272435;27;20470;-62
2024/04/13 08:10:39;;;;;;;8.40;5.80;;;21.00;99.90;;;;;;5272220;27;20525;-62
2024/04/13 08:13:04;;;;;;;6.83;5.00;;;21.00;99.90;;;;;;5272084;27;20526;-63
2024/04/13 08:15:30;;;;;;;5.60;5.03;;;20.90;99.90;;;;;;5274702;27;20560;-64
2024/04/13 08:17:58;;;;;;;7.20;5.47;;;20.70;99.90;;;;;;5273231;27;20281;-63
2024/04/13 08:20:24;;;;;;;7.90;5.90;;;20.80;99.90;;;;;;5275540;27;20274;-63
2024/04/13 08:22:49;;;;;;;4.90;4.50;;;21.20;99.90;;;;;;5278054;27;20545;-63
2024/04/13 08:25:15;;;;;;;6.10;5.60;;;20.90;99.90;;;;;;5277323;27;20230;-64
2024/04/13 08:27:41;;;;;;;5.97;4.97;;;20.90;99.90;;;;;;5277963;27;20277;-64
2024/04/13 08:30:07;;;;;;;4.90;4.50;;;21.40;99.90;;;;;;5277228;27;20219;-63
2024/04/13 08:32:32;;;;;;;4.73;4.30;;;21.20;99.90;;;;;;5277411;27;20238;-63
2024/04/13 08:34:58;;;;;;;4.53;3.70;;;22.20;99.90;;;;;;5276965;27;21046;-63
2024/04/13 08:37:23;;;;;;;5.70;4.20;;;21.90;99.90;;;;;;5276509;27;20235;-62
2024/04/13 08:39:49;;;;;;;5.23;3.77;;;22.60;99.90;;;;;;5277733;27;20655;-63
2024/04/13 08:42:25;;;;;;;8.50;4.03;;;23.10;99.90;;;;;;5277052;27;20778;-63
2024/04/13 08:44:55;;;;;;;3.90;3.50;;;23.20;99.90;;;;;;5277579;27;20279;-63
2024/04/13 08:47:21;;;;;;;5.60;3.00;;;23.10;99.90;;;;;;5277267;27;20507;-63
2024/04/13 08:49:48;;;;;;;3.67;3.13;;;21.80;99.90;;;;;;5277487;27;20642;-65
2024/04/13 08:52:15;;;;;;;3.20;2.93;;;21.40;99.90;;;;;;5277030;27;20566;-63
2024/04/13 08:54:41;;;;;;;3.80;2.80;;;21.40;99.90;;;;;;5275636;27;20901;-64
2024/04/13 08:57:08;;;;;;;5.67;2.70;;;21.10;99.90;;;;;;5276976;27;20521;-64
2024/04/13 08:59:34;;;;;;;5.53;3.00;;;21.40;99.90;;;;;;5277216;27;20573;-64
2024/04/13 09:02:02;;;;;;;3.33;3.03;;;21.60;99.90;;;;;;5277249;27;20520;-64
2024/04/13 09:04:28;;;;;;;4.00;2.87;;;22.40;99.90;;;;;;5277062;27;20282;-64
2024/04/13 09:06:56;;;;;;;3.23;2.93;;;21.80;99.90;;;;;;5276316;27;20519;-63
2024/04/13 09:09:23;;;;;;;4.77;4.30;;;21.80;99.90;;;;;;5276591;27;20520;-63
2024/04/13 09:11:49;;;;;;;4.90;3.27;;;22.20;99.90;;;;;;5276176;27;20947;-64
2024/04/13 09:14:14;;;;;;;4.43;3.03;;;23.30;99.90;;;;;;5276552;27;20463;-63
2024/04/13 09:16:40;;;;;;;4.90;3.47;;;22.70;99.90;;;;;;5277187;27;20233;-64
2024/04/13 09:19:06;;;;;;;5.43;3.60;;;22.40;99.90;;;;;;5276907;27;20715;-64
2024/04/13 09:21:34;;;;;;;3.70;3.30;;;22.10;99.90;;;;;;5277018;27;20464;-64
2024/04/13 09:24:00;;;;;;;4.60;3.20;;;22.00;99.90;;;;;;5276825;27;20323;-63
2024/04/13 09:26:26;;;;;;;3.33;3.03;;;22.10;99.90;;;;;;5277020;27;20471;-64
2024/04/13 09:28:51;;;;;;;4.60;3.10;;;22.40;99.90;;;;;;5276911;27;20668;-64
2024/04/13 09:31:18;;;;;;;5.17;3.10;;;22.60;99.90;;;;;;5275417;27;20368;-63
2024/04/13 09:33:49;;;;;;;4.90;3.00;;;23.10;99.90;;;;;;5276422;27;20726;-64
2024/04/13 09:36:26;;;;;;;2.63;2.40;;;23.30;99.00;;;;;;5276005;27;20827;-63
2024/04/13 09:38:55;;;;;;;3.27;2.50;;;22.50;99.60;;;;;;5276988;27;20884;-64
2024/04/13 09:41:22;;;;;;;6.53;2.93;;;23.30;99.90;;;;;;5262803;27;21003;-64
2024/04/13 09:43:49;;;;;;;6.40;2.87;;;24.20;98.00;;;;;;5276730;27;20456;-65
2024/04/13 09:46:17;;;;;;;3.60;2.67;;;23.90;98.40;;;;;;5276336;27;20528;-64
2024/04/13 09:48:42;;;;;;;3.27;2.97;;;23.70;98.30;;;;;;5276748;27;20468;-65
2024/04/13 09:51:08;;;;;;;3.07;2.77;;;23.40;99.70;;;;;;5276388;27;20524;-64
2024/04/13 09:53:33;;;;;;;3.40;2.63;;;22.20;99.90;;;;;;5276279;27;20228;-66
2024/04/13 09:55:59;;;;;;;3.93;3.30;;;22.90;99.90;;;;;;5276763;27;20301;-63
2024/04/13 09:58:24;;;;;;;3.50;3.20;;;22.70;99.90;;;;;;5276886;27;20225;-64
2024/04/13 10:00:51;;;;;;;3.13;2.83;;;22.80;99.90;;;;;;5276327;27;20271;-64
2024/04/13 10:03:17;;;;;;;9.00;3.20;;;22.70;99.90;;;;;;5276189;27;20804;-63
2024/04/13 10:05:44;;;;;;;3.80;3.10;;;22.80;99.90;;;;;;5276030;27;20554;-64
2024/04/13 10:08:10;;;;;;;4.70;3.20;;;22.70;99.90;;;;;;5276653;27;20271;-63
2024/04/13 10:10:44;;;;;;;8.40;4.03;;;22.60;99.90;;;;;;5276289;27;20518;-64
2024/04/13 10:13:15;;;;;;;2.83;2.50;;;22.90;99.90;;;;;;5274569;27;20500;-63
2024/04/13 10:15:42;;;;;;;3.40;2.40;;;22.80;99.40;;;;;;5276506;27;21089;-64
2024/04/13 10:18:09;;;;;;;4.17;2.50;;;22.20;98.30;;;;;;5276551;27;20513;-64
2024/04/13 10:20:36;;;;;;;3.17;2.30;;;22.00;99.60;;;;;;5275999;27;20516;-64
2024/04/13 10:23:13;;;;;;;3.43;3.03;;;22.00;99.90;;;;;;5276005;27;20460;-64
2024/04/13 10:25:38;;;;;;;2.83;2.60;;;22.00;99.90;;;;;;5276243;27;20578;-63
2024/04/13 10:28:09;;;;;;;4.53;2.83;;;22.10;99.90;;;;;;5275817;27;20505;-64
2024/04/13 10:30:48;;;;;;;3.23;2.93;;;22.20;98.90;;;;;;5275822;27;20233;-62
2024/04/13 10:33:27;;;;;;;3.73;2.97;;;22.10;98.80;;;;;;5262976;27;20744;-65
2024/04/13 10:35:57;;;;;;;4.30;3.53;;;22.20;99.60;;;;;;5248010;27;20585;-65
2024/04/13 10:38:25;;;;;;;3.00;2.80;;;22.10;99.90;;;;;;5250484;27;20461;-63
2024/04/13 10:40:50;;;;;;;3.20;2.73;;;21.70;99.90;;;;;;5269645;27;20526;-65
2024/04/13 10:43:17;;;;;;;6.50;4.30;;;21.60;99.90;;;;;;5275799;27;21025;-63
2024/04/13 10:45:56;;;;;;;3.47;3.10;;;21.80;99.90;;;;;;5276083;27;20233;-63
2024/04/13 10:48:24;;;;;;;4.10;2.80;;;22.10;99.10;;;;;;5264869;27;20911;-64
2024/04/13 10:50:51;;;;;;;6.90;2.83;;;22.40;99.90;;;;;;5260731;27;21007;-63
2024/04/13 10:53:19;;;;;;;3.07;2.80;;;22.60;98.00;;;;;;5259342;27;20485;-63
2024/04/13 10:55:45;;;;;;;2.87;2.67;;;22.70;97.00;;;;;;5258122;27;20529;-60
2024/04/13 10:58:11;;;;;;;5.27;3.20;;;22.40;98.70;;;;;;5270427;27;20467;-59
2024/04/13 11:00:37;;;;;;;3.83;2.50;;;22.50;97.70;;;;;;5275086;27;20456;-61
2024/04/13 11:03:03;;;;;;;5.57;2.70;;;22.50;97.90;;;;;;5270352;27;20235;-61
2024/04/13 11:05:30;;;;;;;5.90;2.83;;;22.50;97.80;;;;;;5266680;27;20227;-62
2024/04/13 11:07:56;;;;;;;4.93;2.77;;;22.60;98.20;;;;;;5259941;27;20465;-61
2024/04/13 11:10:22;;;;;;;6.27;4.27;;;22.70;96.40;;;;;;5253971;27;20597;-63
2024/04/13 11:12:51;;;;;;;10.00;4.07;;;23.10;96.10;;;;;;5249303;27;20277;-61
2024/04/13 11:15:17;;;;;;;5.20;3.50;;;23.10;96.40;;;;;;5252949;27;20872;-62
2024/04/13 11:17:45;;;;;;;3.93;2.30;;;23.30;95.50;;;;;;5262005;27;20466;-62
2024/04/13 11:20:11;;;;;;;3.37;2.33;;;22.80;95.30;;;;;;5249998;27;20465;-62
2024/04/13 11:22:38;;;;;;;4.93;2.53;;;22.60;95.90;;;;;;5276761;27;20464;-61
2024/04/13 11:25:06;;;;;;;3.90;2.60;;;22.60;95.80;;;;;;5265384;27;20763;-62
2024/04/13 11:27:34;;;;;;;4.97;2.50;;;22.40;95.00;;;;;;5262953;27;20587;-61
2024/04/13 11:30:03;;;;;;;1.93;1.83;;;22.50;96.10;;;;;;5275124;27;20475;-61
2024/04/13 11:32:30;;;;;;;2.50;1.53;;;22.50;94.90;;;;;;5266539;27;20456;-60
2024/04/13 11:34:56;;;;;;;2.87;2.13;;;22.70;95.40;;;;;;5243491;27;20476;-61
2024/04/13 11:37:24;;;;;;;2.77;1.80;;;22.90;94.50;;;;;;5257125;27;20803;-62
2024/04/13 11:39:50;;;;;;;2.37;1.97;;;22.80;94.40;;;;;;5257134;27;20367;-61
2024/04/13 11:42:17;;;;;;;1.60;1.50;;;22.60;93.60;;;;;;5274497;27;20457;-62
2024/04/13 11:44:44;;;;;;;5.20;2.57;;;22.60;94.50;;;;;;5274166;27;20769;-60
2024/04/13 11:47:10;;;;;;;2.90;2.00;;;22.40;93.50;;;;;;5269388;27;20474;-63
2024/04/13 11:49:39;;;;;;;3.10;2.73;;;22.50;93.50;;;;;;5274257;27;20469;-63
2024/04/13 11:52:05;;;;;;;2.47;2.17;;;22.50;93.60;;;;;;5273734;27;20470;-62
2024/04/13 11:54:32;;;;;;;3.63;3.23;;;22.80;93.40;;;;;;5261777;27;20460;-62
2024/04/13 11:57:00;;;;;;;4.03;2.20;;;22.80;93.30;;;;;;5277699;27;20463;-62
2024/04/13 11:59:26;;;;;;;3.70;2.97;;;22.60;93.40;;;;;;5276974;27;20452;-63
2024/04/13 12:01:54;;;;;;;2.37;2.17;;;22.90;93.80;;;;;;5277079;27;20497;-62
2024/04/13 12:04:22;;;;;;;7.70;3.70;;;22.70;92.00;;;;;;5257654;27;21058;-62
2024/04/13 12:06:48;;;;;;;2.73;1.60;;;22.70;92.60;;;;;;5260744;27;20471;-61
2024/04/13 12:09:14;;;;;;;2.60;1.73;;;22.80;92.40;;;;;;5276191;27;20468;-62
2024/04/13 12:11:40;;;;;;;6.60;5.07;;;22.70;92.90;;;;;;5276892;27;20451;-62
2024/04/13 12:14:06;;;;;;;2.70;2.00;;;22.80;93.70;;;;;;5271295;27;20455;-62
2024/04/13 12:16:32;;;;;;;4.23;2.80;;;22.70;91.80;;;;;;5271394;27;20463;-62
2024/04/13 12:18:58;;;;;;;3.43;2.63;;;23.10;91.70;;;;;;5271166;27;20467;-62
2024/04/13 12:21:24;;;;;;;2.53;2.00;;;23.00;90.00;;;;;;5270871;27;20340;-62
2024/04/13 12:23:50;;;;;;;3.03;1.80;;;23.00;78.90;;;;;;5268927;27;20817;-60
2024/04/13 12:26:16;;;;;;;6.30;4.70;;;23.10;77.60;;;;;;5276437;27;20487;-61
2024/04/13 12:28:42;;;;;;;1.60;1.50;;;23.00;84.20;;;;;;5256760;27;20508;-61
2024/04/13 12:31:08;;;;;;;6.87;4.73;;;23.20;81.90;;;;;;5262443;27;20514;-61
2024/04/13 12:33:34;;;;;;;7.93;6.40;;;23.20;83.20;;;;;;5276327;27;20527;-61
2024/04/13 12:36:00;;;;;;;2.40;1.57;;;23.10;84.70;;;;;;5280686;27;20512;-61
2024/04/13 12:38:26;;;;;;;4.80;2.90;;;22.90;83.90;;;;;;5262948;27;20449;-63
2024/04/13 12:40:52;;;;;;;3.77;3.23;;;23.40;82.60;;;;;;5252716;27;20991;-62